Main page
METAR-TAF:

METAR-TAF

Airports :

Childress Municipal Airport

Childress, Texas, United States

latitude: 34-25-39N, longitude: 100-17-00W, elevation: 1952 ft

Current weather observation

The report was made 51 minutes ago, at 14:53 UTC
Wind 5 mph from variable directions
Temperature 57°F
Humidity 77%
Pressure 29.99 in. Hg
Visibility: 10 miles
Clear sky

METAR: KCDS 231453Z AUTO VRB04KT 10SM CLR 14/10 A2999 RMK AO2 SLP141 T01390100 53012

Time: 10:44 (15:44 UTC)

Forecast

The report was made 2 hours and 22 minutes ago, at 13:22 UTC
Forecast valid from 23 at 13 UTC to 24 at 12 UTC
Wind 9 mph from the East
Visibility: 6 miles
Few clouds at a height of 2500 ft
From 23 at 1500 UTC
Wind 13 mph from the West
Visibility: 6 miles
Clear sky

TAF: KCDS 231322Z 2313/2412 10008KT P6SM FEW025 FM231500 26011KT P6SM SKC

Weather observations and forecasts of more than 4000 airports (METAR and TAF reports).

The available stations are represented by yellow and red dots on the map.

Hover mouse over dot to see the name of the station.

Then click to see weather observations and forecasts.

To change the map : click on the green buttons with a black cross to zoom in, on the green button with a dash to zoom out, or on the green arrows for adjacent maps.


METAR-TAF: